createdAt,value
2023-04-15T00:01:37.465Z,3.03
2023-04-15T00:06:42.527Z,3.17
2023-04-15T00:11:44.784Z,2.83
2023-04-15T00:16:47.673Z,10.38
2023-04-15T00:21:50.067Z,7.93
2023-04-15T00:26:52.461Z,8.75
2023-04-15T00:31:55.945Z,7.05
2023-04-15T00:36:58.826Z,7.75
2023-04-15T00:42:01.345Z,8.75
2023-04-15T00:47:05.607Z,5.53
2023-04-15T00:52:09.256Z,8.07
2023-04-15T00:57:13.613Z,10.48
2023-04-15T01:02:17.055Z,6.05
2023-04-15T01:07:20.430Z,4.43
2023-04-15T01:12:24.901Z,4.13
2023-04-15T01:17:27.476Z,2.78
2023-04-15T01:22:31.346Z,3.10
2023-04-15T01:27:36.028Z,2.50
2023-04-15T01:32:40.311Z,3.60
2023-04-15T01:38:09.515Z,4.13
2023-04-15T01:43:13.814Z,4.28
2023-04-15T01:48:19.337Z,8.85
2023-04-15T01:53:22.933Z,8.82
2023-04-15T01:58:26.435Z,8.02
2023-04-15T02:03:30.433Z,5.68
2023-04-15T02:08:34.470Z,7.38
2023-04-15T02:13:39.388Z,10.25
2023-04-15T02:18:45.291Z,5.70
2023-04-15T02:23:48.957Z,8.48
2023-04-15T02:28:52.551Z,8.82
2023-04-15T02:33:56.214Z,8.57
2023-04-15T02:39:00.273Z,7.05
2023-04-15T02:44:08.035Z,5.53
2023-04-15T02:49:12.648Z,8.70
2023-04-15T02:54:18.027Z,7.00
2023-04-15T02:59:21.812Z,5.78
2023-04-15T03:04:26.711Z,4.00
2023-04-15T03:09:32.017Z,4.20
2023-04-15T03:14:38.142Z,4.00
2023-04-15T03:19:42.472Z,4.78
2023-04-15T03:24:46.332Z,7.20
2023-04-15T03:29:50.072Z,5.28
2023-04-15T03:34:55.077Z,5.35
2023-04-15T03:39:58.582Z,3.92
2023-04-15T03:45:02.272Z,3.90
2023-04-15T03:50:07.527Z,2.80
2023-04-15T03:55:11.799Z,2.80
2023-04-15T04:00:15.854Z,2.55
2023-04-15T04:05:21.101Z,4.05
2023-04-15T04:10:24.597Z,5.47
2023-04-15T04:15:29.391Z,3.95
2023-04-15T04:20:33.455Z,4.80
2023-04-15T04:25:37.802Z,4.88
2023-04-15T04:30:43.386Z,5.55
2023-04-15T04:35:47.054Z,5.63
2023-04-15T04:40:51.234Z,2.42
2023-04-15T04:45:54.765Z,1.80
2023-04-15T04:50:58.422Z,5.63
2023-04-15T04:56:02.530Z,3.20
2023-04-15T05:01:06.547Z,6.90
2023-04-15T05:06:10.919Z,3.33
2023-04-15T05:11:15.640Z,2.45
2023-04-15T05:16:20.925Z,3.13
2023-04-15T05:21:24.802Z,2.85
2023-04-15T05:26:28.497Z,3.88
2023-04-15T05:31:32.109Z,2.50
2023-04-15T05:36:37.564Z,3.65
2023-04-15T05:41:43.598Z,2.25
2023-04-15T05:46:47.376Z,2.70
2023-04-15T05:51:51.666Z,2.55
2023-04-15T05:56:55.274Z,2.45
2023-04-15T06:02:00.017Z,2.90
2023-04-15T06:07:03.523Z,2.10
2023-04-15T06:12:12.375Z,3.13
2023-04-15T06:17:20.081Z,2.50
2023-04-15T06:22:24.115Z,5.90
2023-04-15T06:27:28.321Z,5.60
2023-04-15T06:32:34.614Z,2.03
2023-04-15T06:37:38.613Z,2.17
2023-04-15T06:42:42.750Z,5.88
2023-04-15T06:47:46.885Z,2.15
2023-04-15T06:52:50.450Z,4.53
2023-04-15T06:57:53.939Z,14.30
2023-04-15T07:02:57.405Z,5.13
2023-04-15T07:08:01.338Z,3.90
2023-04-15T07:13:05.930Z,3.40
2023-04-15T07:18:10.065Z,6.10
2023-04-15T07:23:14.229Z,4.30
2023-04-15T07:28:18.926Z,4.35
2023-04-15T07:33:25.110Z,8.32
2023-04-15T07:38:29.203Z,3.55
2023-04-15T07:43:32.988Z,3.35
2023-04-15T07:48:37.571Z,3.25
2023-04-15T07:53:41.937Z,2.65
2023-04-15T07:58:48.181Z,3.45
2023-04-15T08:03:52.921Z,5.20
2023-04-15T08:08:57.215Z,3.92
2023-04-15T08:14:02.163Z,3.00
2023-04-15T08:19:05.871Z,4.65
2023-04-15T08:24:10.581Z,5.53
2023-04-15T08:29:14.654Z,4.30
2023-04-15T08:34:18.512Z,5.78
2023-04-15T08:39:22.519Z,3.53
2023-04-15T08:44:29.280Z,3.63
2023-04-15T08:49:33.257Z,4.88
2023-04-15T08:54:37.801Z,3.10
2023-04-15T08:59:43.111Z,2.88
2023-04-15T09:04:46.643Z,5.32
2023-04-15T09:09:50.805Z,4.95
2023-04-15T09:14:55.715Z,2.80
2023-04-15T09:20:14.857Z,3.30
2023-04-15T09:25:25.120Z,3.05
2023-04-15T09:30:31.473Z,2.05
2023-04-15T09:35:36.531Z,2.45
2023-04-15T09:40:42.886Z,3.35
2023-04-15T09:45:52.136Z,1.88
2023-04-15T09:50:59.074Z,2.15
2023-04-15T09:56:03.392Z,4.97
2023-04-15T10:01:09.956Z,3.75
2023-04-15T10:06:15.909Z,2.05
2023-04-15T10:16:28.058Z,2.90
2023-04-15T10:21:32.438Z,3.25
2023-04-15T10:26:36.589Z,3.03
2023-04-15T10:31:42.495Z,2.28
2023-04-15T10:36:47.327Z,2.10
2023-04-15T10:42:07.864Z,2.63
2023-04-15T10:47:22.067Z,3.60
2023-04-15T10:52:27.867Z,3.45
2023-04-15T10:57:42.354Z,2.78
2023-04-15T11:02:55.029Z,2.60
2023-04-15T11:08:02.302Z,2.35
2023-04-15T11:13:16.880Z,3.30
2023-04-15T11:18:26.000Z,3.38
2023-04-15T11:23:47.601Z,3.35
2023-04-15T11:28:51.916Z,4.68
2023-04-15T11:34:01.812Z,4.93
2023-04-15T11:39:08.004Z,2.65
2023-04-15T11:44:18.929Z,2.85
2023-04-15T11:49:31.446Z,3.20
2023-04-15T11:54:33.828Z,3.78
2023-04-15T11:59:45.501Z,4.18
2023-04-15T12:04:49.487Z,3.50
2023-04-15T12:09:58.466Z,2.72
2023-04-15T12:15:02.101Z,2.58
2023-04-15T12:20:08.118Z,2.13
2023-04-15T12:25:10.581Z,2.72
2023-04-15T12:30:13.687Z,2.42
2023-04-15T12:35:16.125Z,3.83
2023-04-15T12:40:20.415Z,3.33
2023-04-15T12:45:23.828Z,3.08
2023-04-15T12:50:26.626Z,3.45
2023-04-15T12:55:28.977Z,4.00
2023-04-15T13:00:35.020Z,3.13
2023-04-15T13:05:39.440Z,3.90
2023-04-15T13:10:42.788Z,4.28
2023-04-15T13:15:46.241Z,5.10
2023-04-15T13:20:49.791Z,6.28
2023-04-15T13:25:52.655Z,3.53
2023-04-15T13:30:57.329Z,3.72
2023-04-15T13:36:00.094Z,2.22
2023-04-15T13:41:03.662Z,2.83
2023-04-15T13:46:06.592Z,1.70
2023-04-15T13:51:09.574Z,1.77
2023-04-15T13:56:12.114Z,2.72
2023-04-15T14:01:15.515Z,1.83
2023-04-15T14:06:18.528Z,2.78
2023-04-15T14:11:21.422Z,2.95
2023-04-15T14:16:24.381Z,3.20
2023-04-15T14:21:28.110Z,3.90
2023-04-15T14:26:30.569Z,4.05
2023-04-15T14:31:34.966Z,2.95
2023-04-15T14:36:37.489Z,2.92
2023-04-15T14:41:40.417Z,2.33
2023-04-15T14:46:42.857Z,1.67
2023-04-15T14:51:47.157Z,2.08
2023-04-15T14:56:50.115Z,3.45
2023-04-15T15:01:53.683Z,4.38
2023-04-15T15:06:56.271Z,3.55
2023-04-15T15:11:59.080Z,3.13
2023-04-15T15:17:01.906Z,3.78
2023-04-15T15:22:04.771Z,4.40
2023-04-15T15:27:07.135Z,5.53
2023-04-15T15:32:10.108Z,4.60
2023-04-15T15:37:13.578Z,6.22
2023-04-15T15:42:16.687Z,4.43
2023-04-15T15:47:21.471Z,4.45
2023-04-15T15:52:23.945Z,3.35
2023-04-15T15:57:26.216Z,3.05
2023-04-15T16:02:52.410Z,2.60
2023-04-15T16:07:51.275Z,2.90
2023-04-15T16:12:54.352Z,3.13
2023-04-15T16:17:56.796Z,2.53
2023-04-15T16:22:59.585Z,3.28
2023-04-15T16:28:11.566Z,3.55
2023-04-15T16:33:21.706Z,5.65
2023-04-15T16:38:24.917Z,6.25
2023-04-15T16:43:28.552Z,5.32
2023-04-15T16:48:31.175Z,5.00
2023-04-15T16:53:33.603Z,5.43
2023-04-15T16:58:35.875Z,5.00
2023-04-15T17:03:40.914Z,3.60
2023-04-15T17:08:44.669Z,3.42
2023-04-15T17:13:47.440Z,2.95
2023-04-15T17:18:51.255Z,2.20
2023-04-15T17:24:05.274Z,1.88
2023-04-15T17:29:17.244Z,2.72
2023-04-15T17:34:25.689Z,3.90
2023-04-15T17:40:09.083Z,2.25
2023-04-15T17:45:31.906Z,3.25
2023-04-15T17:50:54.496Z,4.25
2023-04-15T17:56:16.952Z,3.95
2023-04-15T18:01:39.397Z,3.45
2023-04-15T18:07:02.504Z,3.70
2023-04-15T18:12:24.880Z,3.35
2023-04-15T18:17:48.547Z,4.22
2023-04-15T18:22:52.274Z,3.08
2023-04-15T18:27:55.581Z,2.45
2023-04-15T18:32:58.575Z,2.85
2023-04-15T18:38:01.525Z,4.10
2023-04-15T18:43:04.849Z,2.72
2023-04-15T18:48:07.538Z,4.88
2023-04-15T18:53:10.448Z,4.97
2023-04-15T18:58:13.234Z,5.43
2023-04-15T19:03:15.922Z,3.75
2023-04-15T19:08:18.887Z,4.07
2023-04-15T19:13:22.910Z,3.78
2023-04-15T19:18:26.605Z,3.97
2023-04-15T19:23:30.871Z,3.35
2023-04-15T19:28:33.347Z,3.85
2023-04-15T19:33:35.934Z,2.80
2023-04-15T19:38:38.357Z,2.00
2023-04-15T19:43:40.803Z,2.03
2023-04-15T19:48:43.383Z,2.97
2023-04-15T19:53:45.962Z,4.53
2023-04-15T19:58:52.932Z,3.78
2023-04-15T20:03:56.032Z,3.92
2023-04-15T20:08:58.730Z,4.78
2023-04-15T20:14:01.574Z,4.63
2023-04-15T20:19:09.274Z,2.88
2023-04-15T20:24:11.955Z,2.10
2023-04-15T20:29:14.794Z,1.83
2023-04-15T20:34:17.202Z,2.30
2023-04-15T20:39:20.215Z,2.03
2023-04-15T20:44:24.553Z,1.55
2023-04-15T20:49:27.538Z,2.00
2023-04-15T20:54:32.125Z,2.35
2023-04-15T20:59:35.178Z,2.10
2023-04-15T21:04:41.251Z,1.75
2023-04-15T21:09:44.172Z,1.90
2023-04-15T21:14:46.555Z,1.85
2023-04-15T21:19:49.610Z,1.98
2023-04-15T21:24:52.488Z,1.85
2023-04-15T21:29:56.039Z,2.08
2023-04-15T21:34:58.523Z,4.18
2023-04-15T21:40:01.688Z,2.78
2023-04-15T21:45:06.714Z,2.47
2023-04-15T21:50:10.897Z,2.58
2023-04-15T21:55:13.443Z,3.92
2023-04-15T22:00:17.649Z,3.33
2023-04-15T22:05:20.561Z,2.97
2023-04-15T22:10:23.641Z,3.60
2023-04-15T22:15:26.689Z,8.88
2023-04-15T22:20:29.620Z,8.52
2023-04-15T22:25:33.232Z,6.15
2023-04-15T22:30:40.528Z,6.25
2023-04-15T22:35:43.954Z,6.60
2023-04-15T22:40:47.144Z,5.93
2023-04-15T22:45:51.557Z,6.35
2023-04-15T22:50:54.088Z,6.90
2023-04-15T22:55:56.402Z,6.20
2023-04-15T23:00:59.291Z,5.70
2023-04-15T23:06:02.261Z,5.38
2023-04-15T23:11:05.932Z,6.32
2023-04-15T23:16:08.249Z,5.57
2023-04-15T23:21:10.679Z,5.63
2023-04-15T23:26:13.595Z,6.53
2023-04-15T23:31:16.733Z,6.97
2023-04-15T23:36:19.622Z,7.65
2023-04-15T23:41:23.137Z,6.25
2023-04-15T23:46:27.462Z,6.32
2023-04-15T23:51:30.523Z,6.40
2023-04-15T23:56:33.382Z,5.80
